createdAt,value
2022-12-20T00:01:15.623Z,41.10
2022-12-20T00:04:03.767Z,43.72
2022-12-20T00:06:50.474Z,42.25
2022-12-20T00:09:36.564Z,44.08
2022-12-20T00:12:22.727Z,43.10
2022-12-20T00:15:09.272Z,39.92
2022-12-20T00:17:55.697Z,39.97
2022-12-20T00:20:41.862Z,45.08
2022-12-20T00:23:29.902Z,39.97
2022-12-20T00:26:17.186Z,42.30
2022-12-20T00:29:03.747Z,42.97
2022-12-20T00:31:50.592Z,41.90
2022-12-20T00:34:37.059Z,41.92
2022-12-20T00:37:23.440Z,45.50
2022-12-20T00:40:10.278Z,39.45
2022-12-20T00:42:56.935Z,44.20
2022-12-20T00:45:43.050Z,45.67
2022-12-20T00:48:30.179Z,46.45
2022-12-20T00:51:21.748Z,41.53
2022-12-20T00:54:08.068Z,47.13
2022-12-20T00:56:54.174Z,44.80
2022-12-20T00:59:40.453Z,37.30
2022-12-20T01:02:26.707Z,43.45
2022-12-20T01:05:13.475Z,45.55
2022-12-20T01:08:00.365Z,41.60
2022-12-20T01:10:47.631Z,42.53
2022-12-20T01:13:35.007Z,42.65
2022-12-20T01:16:23.535Z,39.88
2022-12-20T01:19:11.412Z,43.22
2022-12-20T01:21:57.773Z,44.65
2022-12-20T01:24:43.967Z,42.88
2022-12-20T01:27:30.396Z,42.10
2022-12-20T01:30:17.011Z,37.55
2022-12-20T01:33:03.628Z,37.25
2022-12-20T01:35:57.489Z,42.15
2022-12-20T01:38:44.147Z,43.58
2022-12-20T01:41:31.289Z,40.95
2022-12-20T01:44:17.645Z,42.95
2022-12-20T01:47:04.721Z,40.38
2022-12-20T01:49:52.488Z,43.83
2022-12-20T01:52:41.806Z,42.30
2022-12-20T01:55:28.590Z,39.70
2022-12-20T01:58:16.532Z,45.55
2022-12-20T02:01:03.084Z,42.05
2022-12-20T02:03:50.159Z,42.75
2022-12-20T02:06:36.664Z,43.00
2022-12-20T02:09:24.006Z,48.47
2022-12-20T02:12:17.528Z,49.42
2022-12-20T02:15:13.042Z,44.55
2022-12-20T02:18:15.570Z,45.30
2022-12-20T02:21:05.779Z,45.25
2022-12-20T02:23:52.019Z,48.13
2022-12-20T02:26:39.661Z,46.40
2022-12-20T02:29:28.798Z,46.15
2022-12-20T02:32:20.919Z,46.17
2022-12-20T02:35:08.834Z,44.10
2022-12-20T02:37:57.358Z,41.28
2022-12-20T02:40:44.407Z,42.75
2022-12-20T02:43:50.760Z,47.83
2022-12-20T02:46:37.724Z,46.88
2022-12-20T02:49:27.114Z,45.45
2022-12-20T02:52:14.751Z,42.03
2022-12-20T02:55:01.355Z,44.38
2022-12-20T02:58:07.910Z,46.05
2022-12-20T03:00:56.017Z,43.17
2022-12-20T03:03:42.624Z,47.80
2022-12-20T03:06:30.830Z,46.45
2022-12-20T03:09:17.558Z,44.88
2022-12-20T03:12:04.118Z,50.00
2022-12-20T03:14:53.692Z,47.60
2022-12-20T03:17:40.303Z,47.45
2022-12-20T03:20:26.350Z,53.88
2022-12-20T03:23:12.991Z,46.53
2022-12-20T03:25:59.697Z,50.03
2022-12-20T03:28:56.946Z,47.15
2022-12-20T03:31:46.273Z,52.53
2022-12-20T03:34:32.850Z,49.53
2022-12-20T03:37:20.639Z,54.80
2022-12-20T03:40:07.641Z,55.40
2022-12-20T03:42:54.457Z,46.72
2022-12-20T03:45:40.632Z,56.10
2022-12-20T03:48:26.763Z,49.05
2022-12-20T03:51:12.933Z,58.75
2022-12-20T03:53:59.647Z,52.47
2022-12-20T03:57:02.131Z,53.90
2022-12-20T03:59:49.476Z,56.15
2022-12-20T04:02:38.520Z,64.88
2022-12-20T04:05:25.217Z,62.20
2022-12-20T04:08:12.046Z,58.75
2022-12-20T04:11:17.680Z,56.10
2022-12-20T04:14:12.203Z,60.20
2022-12-20T04:16:58.539Z,62.67
2022-12-20T04:19:44.988Z,69.35
2022-12-20T04:22:31.809Z,63.33
2022-12-20T04:25:23.253Z,65.25
2022-12-20T04:28:10.509Z,67.60
2022-12-20T04:30:57.754Z,65.38
2022-12-20T04:33:48.844Z,70.65
2022-12-20T04:36:36.022Z,66.07
2022-12-20T04:39:26.332Z,63.50
2022-12-20T04:42:36.461Z,65.95
2022-12-20T04:45:22.735Z,66.45
2022-12-20T04:48:45.891Z,67.32
2022-12-20T04:51:18.727Z,74.25
2022-12-20T04:54:05.031Z,63.03
2022-12-20T04:56:57.926Z,72.78
2022-12-20T04:59:44.677Z,63.47
2022-12-20T05:02:33.369Z,67.88
2022-12-20T05:05:25.480Z,71.70
2022-12-20T05:08:14.111Z,69.47
2022-12-20T05:11:01.082Z,77.60
2022-12-20T05:13:47.988Z,71.95
2022-12-20T05:16:37.776Z,77.18
2022-12-20T05:19:26.262Z,74.53
2022-12-20T05:22:31.284Z,76.80
2022-12-20T05:25:43.984Z,75.00
2022-12-20T05:28:33.868Z,76.03
2022-12-20T05:31:20.288Z,76.82
2022-12-20T05:34:06.581Z,74.88
2022-12-20T05:36:55.790Z,87.35
2022-12-20T05:39:45.690Z,80.07
2022-12-20T05:42:37.882Z,76.15
2022-12-20T05:45:30.297Z,78.78
2022-12-20T05:48:24.542Z,81.55
2022-12-20T05:51:12.491Z,79.20
2022-12-20T05:54:20.454Z,78.47
2022-12-20T05:57:16.251Z,83.90
2022-12-20T06:00:03.493Z,75.85
2022-12-20T06:03:03.365Z,70.18
2022-12-20T06:05:51.403Z,84.50
2022-12-20T06:08:44.663Z,81.00
2022-12-20T06:11:36.241Z,83.07
2022-12-20T06:14:29.334Z,84.60
2022-12-20T06:17:16.718Z,82.47
2022-12-20T06:20:04.173Z,87.55
2022-12-20T06:22:54.259Z,77.53
2022-12-20T06:25:41.167Z,85.07
2022-12-20T06:28:27.856Z,76.10
2022-12-20T06:31:14.471Z,78.57
2022-12-20T06:34:12.593Z,80.13
2022-12-20T06:37:01.035Z,75.70
2022-12-20T06:39:50.705Z,81.45
2022-12-20T06:42:37.525Z,77.05
2022-12-20T06:45:23.726Z,72.38
2022-12-20T06:48:10.165Z,85.57
2022-12-20T06:51:00.160Z,77.90
2022-12-20T06:53:47.562Z,80.22
2022-12-20T06:56:39.404Z,85.05
2022-12-20T06:59:29.512Z,86.63
2022-12-20T07:02:16.319Z,82.75
2022-12-20T07:05:02.872Z,73.90
2022-12-20T07:07:49.235Z,76.35
2022-12-20T07:10:36.123Z,79.22
2022-12-20T07:13:22.367Z,78.00
2022-12-20T07:16:08.873Z,83.13
2022-12-20T07:18:56.927Z,78.28
2022-12-20T07:21:43.676Z,76.95
2022-12-20T07:24:30.564Z,74.90
2022-12-20T07:27:17.824Z,72.55
2022-12-20T07:30:05.436Z,72.78
2022-12-20T07:32:51.908Z,76.05
2022-12-20T07:35:38.110Z,71.60
2022-12-20T07:38:25.129Z,74.63
2022-12-20T07:41:12.323Z,75.20
2022-12-20T07:43:59.534Z,74.38
2022-12-20T07:46:46.356Z,79.53
2022-12-20T07:49:32.911Z,66.05
2022-12-20T07:52:22.530Z,69.10
2022-12-20T07:55:09.359Z,72.18
2022-12-20T07:58:00.057Z,70.45
2022-12-20T08:00:46.550Z,73.97
2022-12-20T08:03:37.756Z,69.53
2022-12-20T08:06:24.604Z,68.22
2022-12-20T08:09:15.293Z,67.38
2022-12-20T08:12:01.487Z,73.78
2022-12-20T08:14:48.080Z,72.07
2022-12-20T08:17:34.959Z,71.70
2022-12-20T08:20:21.317Z,69.07
2022-12-20T08:23:07.631Z,66.63
2022-12-20T08:25:54.552Z,70.88
2022-12-20T08:28:40.937Z,64.93
2022-12-20T08:31:27.361Z,70.25
2022-12-20T08:34:14.240Z,64.95
2022-12-20T08:37:00.822Z,74.53
2022-12-20T08:39:47.171Z,74.10
2022-12-20T08:42:33.662Z,70.15
2022-12-20T08:45:20.320Z,71.97
2022-12-20T08:48:06.966Z,70.07
2022-12-20T08:51:01.162Z,70.20
2022-12-20T08:53:47.283Z,61.92
2022-12-20T08:56:33.776Z,69.63
2022-12-20T08:59:20.315Z,66.07
2022-12-20T09:02:07.002Z,62.85
2022-12-20T09:04:53.581Z,64.78
2022-12-20T09:07:40.393Z,62.15
2022-12-20T09:10:26.554Z,70.93
2022-12-20T09:13:13.025Z,69.53
2022-12-20T09:16:02.213Z,65.05
2022-12-20T09:18:52.917Z,70.22
2022-12-20T09:21:39.934Z,65.50
2022-12-20T09:24:26.137Z,63.80
2022-12-20T09:27:12.475Z,63.38
2022-12-20T09:29:58.885Z,69.13
2022-12-20T09:32:46.647Z,68.28
2022-12-20T09:35:33.810Z,64.60
2022-12-20T09:38:20.195Z,66.45
2022-12-20T09:41:07.211Z,67.50
2022-12-20T09:43:54.331Z,71.45
2022-12-20T09:46:41.339Z,67.13
2022-12-20T09:49:29.785Z,63.20
2022-12-20T09:52:22.675Z,62.42
2022-12-20T09:55:09.930Z,63.20
2022-12-20T09:58:02.517Z,62.63
2022-12-20T10:00:53.795Z,59.10
2022-12-20T10:03:40.446Z,58.85
2022-12-20T10:06:30.401Z,58.15
2022-12-20T10:09:33.393Z,61.08
2022-12-20T10:12:27.415Z,55.88
2022-12-20T10:15:21.446Z,60.70
2022-12-20T10:18:08.240Z,60.58
2022-12-20T10:20:58.296Z,59.63
2022-12-20T10:23:54.952Z,59.80
2022-12-20T10:26:41.635Z,57.90
2022-12-20T10:29:29.455Z,56.30
2022-12-20T10:32:20.529Z,53.97
2022-12-20T10:35:13.659Z,52.10
2022-12-20T10:38:09.550Z,60.13
2022-12-20T10:41:21.361Z,58.10
2022-12-20T10:44:04.100Z,54.33
2022-12-20T10:46:53.974Z,56.55
2022-12-20T10:49:43.369Z,55.63
2022-12-20T10:52:30.051Z,59.33
2022-12-20T10:55:39.486Z,54.85
2022-12-20T10:58:30.540Z,52.20
2022-12-20T11:01:19.240Z,51.40
2022-12-20T11:04:23.499Z,54.55
2022-12-20T11:07:27.107Z,58.83
2022-12-20T11:10:24.580Z,54.80
2022-12-20T11:13:20.639Z,59.38
2022-12-20T11:16:07.388Z,54.85
2022-12-20T11:19:02.879Z,52.65
2022-12-20T11:21:56.675Z,54.65
2022-12-20T11:24:42.897Z,53.08
2022-12-20T11:27:41.527Z,54.13
2022-12-20T11:30:38.453Z,54.45
2022-12-20T11:33:46.301Z,49.47
2022-12-20T11:36:45.341Z,52.67
2022-12-20T11:39:50.305Z,52.67
2022-12-20T11:42:46.844Z,54.10
2022-12-20T11:45:33.267Z,51.40
2022-12-20T11:48:25.760Z,53.15
2022-12-20T11:51:26.088Z,49.33
2022-12-20T11:54:31.858Z,51.40
2022-12-20T11:57:20.945Z,54.05
2022-12-20T12:00:08.192Z,53.08
2022-12-20T12:03:10.719Z,47.03
2022-12-20T12:05:59.199Z,49.10
2022-12-20T12:08:47.537Z,50.15
2022-12-20T12:15:00.528Z,48.97
2022-12-20T12:18:13.376Z,49.97
2022-12-20T12:21:09.532Z,45.75
2022-12-20T12:23:57.332Z,51.33
2022-12-20T12:26:43.627Z,48.40
2022-12-20T12:29:30.950Z,49.05
2022-12-20T12:32:22.735Z,46.10
2022-12-20T12:35:18.099Z,45.58
2022-12-20T12:38:18.680Z,51.33
2022-12-20T12:41:07.852Z,49.88
2022-12-20T12:43:55.188Z,47.25
2022-12-20T12:46:41.659Z,50.55
2022-12-20T12:49:29.430Z,47.53
2022-12-20T12:52:51.455Z,41.95
2022-12-20T12:55:38.164Z,46.42
2022-12-20T12:58:24.521Z,53.95
2022-12-20T13:01:13.176Z,44.63
2022-12-20T13:03:59.349Z,44.78
2022-12-20T13:06:56.391Z,47.30
2022-12-20T13:09:45.882Z,41.55
2022-12-20T13:12:38.372Z,38.83
2022-12-20T13:15:24.886Z,45.50
2022-12-20T13:18:14.252Z,39.63
2022-12-20T13:21:29.696Z,39.95
2022-12-20T13:24:37.238Z,39.28
2022-12-20T13:27:44.477Z,42.53
2022-12-20T13:30:31.138Z,38.03
2022-12-20T13:33:19.811Z,36.58
2022-12-20T13:39:04.311Z,35.67
2022-12-20T13:42:13.537Z,38.10
2022-12-20T13:45:02.872Z,41.03
2022-12-20T13:48:12.808Z,40.90
2022-12-20T13:50:59.562Z,41.60
2022-12-20T13:54:01.720Z,42.10
2022-12-20T13:56:50.347Z,42.92
2022-12-20T13:59:36.972Z,43.90
2022-12-20T14:02:25.159Z,50.10
2022-12-20T14:05:27.124Z,50.03
2022-12-20T14:08:23.949Z,50.10
2022-12-20T14:11:10.588Z,51.20
2022-12-20T14:13:57.810Z,54.30
2022-12-20T14:16:44.745Z,57.75
2022-12-20T14:19:31.249Z,58.40
2022-12-20T14:22:23.460Z,54.85
2022-12-20T14:25:11.078Z,58.85
2022-12-20T14:27:57.667Z,58.33
2022-12-20T14:30:45.707Z,60.17
2022-12-20T14:33:37.880Z,61.40
2022-12-20T14:36:24.300Z,62.83
2022-12-20T14:39:27.070Z,60.92
2022-12-20T14:42:14.382Z,57.83
2022-12-20T14:45:09.743Z,57.20
2022-12-20T14:47:58.396Z,64.07
2022-12-20T14:50:55.639Z,60.03
2022-12-20T14:53:45.259Z,75.35
2022-12-20T14:56:34.091Z,67.32
2022-12-20T14:59:32.406Z,63.65
2022-12-20T15:02:51.979Z,71.10
2022-12-20T15:05:47.285Z,78.90
2022-12-20T15:08:34.451Z,73.10
2022-12-20T15:11:23.253Z,73.45
2022-12-20T15:14:19.437Z,74.45
2022-12-20T15:17:10.830Z,74.50
2022-12-20T15:20:00.027Z,79.97
2022-12-20T15:22:46.715Z,83.53
2022-12-20T15:25:41.210Z,86.93
2022-12-20T15:28:30.645Z,77.78
2022-12-20T15:31:22.234Z,87.07
2022-12-20T15:34:15.926Z,97.65
2022-12-20T15:37:03.520Z,82.60
2022-12-20T15:39:49.829Z,102.88
2022-12-20T15:42:36.030Z,93.45
2022-12-20T15:45:23.101Z,89.32
2022-12-20T15:48:20.872Z,103.03
2022-12-20T15:51:16.481Z,103.65
2022-12-20T15:54:05.165Z,94.00
2022-12-20T15:56:51.762Z,94.97
2022-12-20T16:02:44.673Z,117.13
2022-12-20T16:05:34.056Z,110.53
2022-12-20T16:08:20.609Z,92.90
2022-12-20T16:11:07.605Z,91.07
2022-12-20T16:13:54.953Z,95.07
2022-12-20T16:16:41.090Z,90.78
2022-12-20T16:19:27.357Z,120.40
2022-12-20T16:22:18.065Z,89.18
2022-12-20T16:25:04.723Z,104.40
2022-12-20T16:27:50.944Z,108.05
2022-12-20T16:30:38.291Z,114.60
2022-12-20T16:33:24.522Z,105.90
2022-12-20T16:36:12.376Z,124.40
2022-12-20T16:38:59.125Z,115.75
2022-12-20T16:41:45.595Z,143.07
2022-12-20T16:44:31.952Z,120.78
2022-12-20T16:47:19.168Z,120.88
2022-12-20T16:50:06.263Z,141.50
2022-12-20T16:52:52.501Z,121.78
2022-12-20T16:55:41.411Z,99.93
2022-12-20T16:58:52.433Z,125.65
2022-12-20T17:01:36.483Z,133.82
2022-12-20T17:04:24.523Z,111.80
2022-12-20T17:07:10.652Z,125.05
2022-12-20T17:09:57.997Z,106.00
2022-12-20T17:16:13.674Z,123.60
2022-12-20T17:19:00.365Z,120.57
2022-12-20T17:24:54.491Z,119.00
2022-12-20T17:27:56.516Z,125.47
2022-12-20T17:30:44.135Z,116.65
2022-12-20T17:33:31.070Z,115.43
2022-12-20T17:36:17.998Z,144.63
2022-12-20T17:39:04.439Z,128.35
2022-12-20T17:41:51.333Z,133.10
2022-12-20T17:44:38.520Z,122.75
2022-12-20T17:47:27.087Z,136.07
2022-12-20T17:50:13.868Z,132.52
2022-12-20T17:53:01.820Z,122.57
2022-12-20T17:55:49.776Z,132.73
2022-12-20T17:58:40.247Z,132.77
2022-12-20T18:01:28.116Z,143.57
2022-12-20T18:04:17.174Z,135.85
2022-12-20T18:07:05.666Z,141.80
2022-12-20T18:09:52.169Z,137.90
2022-12-20T18:12:39.857Z,148.55
2022-12-20T18:15:26.537Z,138.93
2022-12-20T18:18:13.313Z,131.93
2022-12-20T18:21:07.051Z,137.32
2022-12-20T18:23:54.986Z,127.57
2022-12-20T18:26:41.671Z,148.25
2022-12-20T18:29:29.379Z,141.45
2022-12-20T18:32:18.002Z,145.40
2022-12-20T18:35:05.073Z,148.25
2022-12-20T18:37:52.072Z,154.57
2022-12-20T18:40:39.837Z,146.50
2022-12-20T18:43:26.246Z,147.45
2022-12-20T18:46:14.268Z,161.23
2022-12-20T18:49:02.050Z,151.73
2022-12-20T18:51:48.901Z,153.88
2022-12-20T18:54:35.955Z,150.90
2022-12-20T18:57:23.602Z,154.00
2022-12-20T19:00:11.064Z,147.00
2022-12-20T19:03:00.575Z,140.90
2022-12-20T19:05:47.575Z,146.00
2022-12-20T19:08:34.678Z,155.52
2022-12-20T19:11:22.477Z,137.25
2022-12-20T19:14:09.915Z,144.88
2022-12-20T19:16:57.016Z,143.02
2022-12-20T19:19:43.833Z,145.20
2022-12-20T19:22:30.982Z,145.77
2022-12-20T19:25:17.419Z,142.88
2022-12-20T19:28:05.215Z,147.63
2022-12-20T19:30:52.153Z,141.10
2022-12-20T19:33:40.085Z,133.75
2022-12-20T19:36:27.569Z,143.10
2022-12-20T19:39:20.648Z,133.23
2022-12-20T19:42:23.599Z,138.32
2022-12-20T19:45:12.219Z,155.82
2022-12-20T19:47:58.634Z,130.05
2022-12-20T19:50:44.969Z,149.18
2022-12-20T19:53:33.705Z,140.38
2022-12-20T19:56:24.158Z,147.00
2022-12-20T19:59:13.168Z,148.48
2022-12-20T20:01:59.524Z,145.07
2022-12-20T20:04:46.325Z,139.68
2022-12-20T20:07:32.741Z,150.82
2022-12-20T20:10:19.044Z,139.00
2022-12-20T20:13:05.469Z,155.23
2022-12-20T20:15:52.515Z,147.20
2022-12-20T20:18:40.283Z,141.23
2022-12-20T20:21:26.886Z,131.07
2022-12-20T20:24:13.181Z,136.40
2022-12-20T20:26:59.431Z,142.15
2022-12-20T20:29:45.863Z,156.40
2022-12-20T20:32:34.460Z,159.75
2022-12-20T20:35:20.754Z,140.30
2022-12-20T20:38:10.294Z,151.98
2022-12-20T20:40:56.872Z,139.38
2022-12-20T20:46:39.160Z,133.65
2022-12-20T20:49:26.470Z,143.18
2022-12-20T20:52:13.684Z,116.22
2022-12-20T20:55:09.093Z,118.57
2022-12-20T20:57:55.392Z,115.20
2022-12-20T21:00:41.791Z,121.63
2022-12-20T21:03:29.001Z,112.75
2022-12-20T21:09:21.545Z,109.63
2022-12-20T21:12:08.091Z,119.85
2022-12-20T21:15:21.226Z,113.75
2022-12-20T21:18:01.409Z,112.90
2022-12-20T21:20:49.018Z,118.32
2022-12-20T21:23:35.622Z,111.95
2022-12-20T21:26:22.294Z,106.25
2022-12-20T21:29:09.211Z,108.68
2022-12-20T21:31:55.973Z,98.05
2022-12-20T21:34:41.982Z,104.03
2022-12-20T21:37:32.646Z,96.70
2022-12-20T21:40:45.207Z,103.25
2022-12-20T21:43:31.774Z,100.13
2022-12-20T21:46:19.164Z,101.35
2022-12-20T21:49:24.631Z,102.80
2022-12-20T21:52:10.979Z,94.40
2022-12-20T21:54:57.488Z,92.40
2022-12-20T21:57:49.020Z,88.93
2022-12-20T22:00:47.083Z,84.13
2022-12-20T22:03:36.951Z,83.65
2022-12-20T22:06:26.139Z,77.75
2022-12-20T22:09:13.236Z,81.63
2022-12-20T22:12:00.150Z,79.88
2022-12-20T22:15:11.664Z,84.90
2022-12-20T22:18:02.480Z,82.03
2022-12-20T22:20:55.015Z,72.60
2022-12-20T22:23:51.381Z,84.68
2022-12-20T22:26:57.204Z,79.80
2022-12-20T22:58:23.434Z,85.40
2022-12-20T23:01:58.397Z,92.18
2022-12-20T23:05:02.070Z,89.53
2022-12-20T23:11:17.964Z,91.95
2022-12-20T23:14:38.204Z,86.50
2022-12-20T23:20:47.467Z,86.13
2022-12-20T23:23:56.079Z,87.32
2022-12-20T23:27:09.477Z,90.03
2022-12-20T23:30:04.907Z,96.72
2022-12-20T23:36:59.087Z,93.35
2022-12-20T23:39:51.375Z,91.88
2022-12-20T23:42:40.222Z,86.70
2022-12-20T23:45:30.039Z,95.25
2022-12-20T23:48:20.017Z,90.38
2022-12-20T23:51:12.551Z,105.33
2022-12-20T23:54:03.463Z,96.15
2022-12-20T23:57:12.271Z,90.82
